トロンハイム の空港の天気 - METARとTAF

Trondheim / Vaernes ( ENVA / TRD ) - ノルウェー ヌール・トロンデラーグ県、Stjordal
飛行場実況気象(Metar)
観測時間07/29 04:20 CEST (07/29 02:20 UTC)
風向・風速南東 4m/s
視程10km以上
天気現象
なし
気温15℃
湿度88%
気圧1001hPa
METARENVA 290220Z 14007KT CAVOK 15/13 Q1001 RMK WIND 670FT 15005KT
過去の天気等 Google飛行場航空写真 Wunderground天気予報

過去48時間のMETAR

飛行場予報(TAF)
発表時間: -
29日12時 CEST ~ 29日20時 CEST に一時的に
天気現象しゅう雨
全天の8割程度の積乱雲 雲底高度 1220m
29日14時 CEST から 確率 30% で
天気現象雷雨
29日20時 CEST ~ 29日22時 CEST に徐々に
風向・風速西 5m/s
TAF ENVA 2900/2924 12007KT 9999 FEW040
TEMPO 2910/2918 SHRA BKN040CB
PROB30 2912/2918 TSRA
BECMG 2918/2920 27010KT